Philadelphia, Pennsylvania
Traffic Map
Current Weather Conditions
Philadelphia, Pennsylvania
Overcast
Overcast
10°
Feels Like: 10°
Wind Chill: 10° Ceiling: 800
Heat Index: 10° Visibility: 10mi
Dew Point: Wind: 12mph
Humidity: 89% Direction: 360° (N)
Pressure: 29.91in Gusts: 0mph
Raw Report DataKPHL 290012Z 36010KT 10SM BKN008 OVC015 10/08 A2991 RMK AO2 T01000083
Traffic Incident Summary
Active as of:
Severity:
Category:
InformationThere was an issue retrieving the traffic information for this location. Please try a different location or try again shortly.
Advertisements
Track Severe Weather on mobile